sensor_id;sensor_type;location;lat;lon;timestamp;temperature;humidity
21318;DHT22;10818;50.830;6.524;2023-07-29T00:04:41;21.00;99.90
21318;DHT22;10818;50.830;6.524;2023-07-29T00:09:41;21.00;99.90
21318;DHT22;10818;50.830;6.524;2023-07-29T00:14:41;20.90;99.90
21318;DHT22;10818;50.830;6.524;2023-07-29T00:19:42;20.70;99.90
21318;DHT22;10818;50.830;6.524;2023-07-29T00:24:42;20.50;99.90
21318;DHT22;10818;50.830;6.524;2023-07-29T00:29:43;20.50;99.90
21318;DHT22;10818;50.830;6.524;2023-07-29T00:34:43;20.60;99.90
21318;DHT22;10818;50.830;6.524;2023-07-29T00:39:44;20.70;99.90
21318;DHT22;10818;50.830;6.524;2023-07-29T00:44:44;20.70;99.90
21318;DHT22;10818;50.830;6.524;2023-07-29T00:49:45;20.70;99.90
21318;DHT22;10818;50.830;6.524;2023-07-29T00:54:45;20.80;99.90
21318;DHT22;10818;50.830;6.524;2023-07-29T00:59:46;20.80;99.90
21318;DHT22;10818;50.830;6.524;2023-07-29T01:04:51;20.90;99.90
21318;DHT22;10818;50.830;6.524;2023-07-29T01:14:59;21.00;99.90
21318;DHT22;10818;50.830;6.524;2023-07-29T01:20:01;21.10;99.90
21318;DHT22;10818;50.830;6.524;2023-07-29T01:25:06;21.10;99.90
21318;DHT22;10818;50.830;6.524;2023-07-29T01:30:06;21.10;99.90
21318;DHT22;10818;50.830;6.524;2023-07-29T01:35:14;20.90;99.90
21318;DHT22;10818;50.830;6.524;2023-07-29T01:40:15;20.80;99.90
21318;DHT22;10818;50.830;6.524;2023-07-29T01:45:16;20.70;99.90
21318;DHT22;10818;50.830;6.524;2023-07-29T01:50:17;20.60;99.90
21318;DHT22;10818;50.830;6.524;2023-07-29T01:55:17;20.30;99.90
21318;DHT22;10818;50.830;6.524;2023-07-29T02:00:18;20.40;99.90
21318;DHT22;10818;50.830;6.524;2023-07-29T02:05:19;20.40;99.90
21318;DHT22;10818;50.830;6.524;2023-07-29T02:10:19;20.40;99.90
21318;DHT22;10818;50.830;6.524;2023-07-29T02:15:20;20.40;99.90
21318;DHT22;10818;50.830;6.524;2023-07-29T02:20:20;20.30;99.90
21318;DHT22;10818;50.830;6.524;2023-07-29T02:25:20;20.30;99.90
21318;DHT22;10818;50.830;6.524;2023-07-29T02:30:21;20.20;99.90
21318;DHT22;10818;50.830;6.524;2023-07-29T02:35:21;20.10;99.90
21318;DHT22;10818;50.830;6.524;2023-07-29T02:40:22;20.00;99.90
21318;DHT22;10818;50.830;6.524;2023-07-29T02:45:23;20.00;99.90
21318;DHT22;10818;50.830;6.524;2023-07-29T02:50:23;20.10;99.90
21318;DHT22;10818;50.830;6.524;2023-07-29T02:55:24;20.10;99.90
21318;DHT22;10818;50.830;6.524;2023-07-29T03:00:24;20.10;99.90
21318;DHT22;10818;50.830;6.524;2023-07-29T03:05:28;20.10;99.90
21318;DHT22;10818;50.830;6.524;2023-07-29T03:10:28;20.10;99.90
21318;DHT22;10818;50.830;6.524;2023-07-29T03:15:29;20.20;99.90
21318;DHT22;10818;50.830;6.524;2023-07-29T03:20:29;20.20;99.90
21318;DHT22;10818;50.830;6.524;2023-07-29T03:25:30;20.10;99.90
21318;DHT22;10818;50.830;6.524;2023-07-29T03:30:30;20.00;99.90
21318;DHT22;10818;50.830;6.524;2023-07-29T03:35:30;19.80;99.90
21318;DHT22;10818;50.830;6.524;2023-07-29T03:40:31;19.80;99.90
21318;DHT22;10818;50.830;6.524;2023-07-29T03:45:31;19.80;99.90
21318;DHT22;10818;50.830;6.524;2023-07-29T03:50:35;19.70;99.90
21318;DHT22;10818;50.830;6.524;2023-07-29T03:55:36;19.70;99.90
21318;DHT22;10818;50.830;6.524;2023-07-29T04:00:37;19.50;99.90
21318;DHT22;10818;50.830;6.524;2023-07-29T04:05:37;19.40;99.90
21318;DHT22;10818;50.830;6.524;2023-07-29T04:10:37;19.40;99.90
21318;DHT22;10818;50.830;6.524;2023-07-29T04:15:38;19.40;99.90
21318;DHT22;10818;50.830;6.524;2023-07-29T04:20:38;19.30;99.90
21318;DHT22;10818;50.830;6.524;2023-07-29T04:25:39;19.20;99.90
21318;DHT22;10818;50.830;6.524;2023-07-29T04:30:39;19.20;99.90
21318;DHT22;10818;50.830;6.524;2023-07-29T04:35:40;19.20;99.90
21318;DHT22;10818;50.830;6.524;2023-07-29T04:40:40;19.30;99.90
21318;DHT22;10818;50.830;6.524;2023-07-29T04:45:44;19.40;99.90
21318;DHT22;10818;50.830;6.524;2023-07-29T04:50:44;19.40;99.90
21318;DHT22;10818;50.830;6.524;2023-07-29T04:55:46;19.40;99.90
21318;DHT22;10818;50.830;6.524;2023-07-29T05:00:46;19.40;99.90
21318;DHT22;10818;50.830;6.524;2023-07-29T05:05:47;19.40;99.90
21318;DHT22;10818;50.830;6.524;2023-07-29T05:10:51;19.50;99.90
21318;DHT22;10818;50.830;6.524;2023-07-29T05:15:51;19.60;99.90
21318;DHT22;10818;50.830;6.524;2023-07-29T05:20:52;19.70;99.90
21318;DHT22;10818;50.830;6.524;2023-07-29T05:25:52;19.70;99.90
21318;DHT22;10818;50.830;6.524;2023-07-29T05:30:53;19.50;99.90
21318;DHT22;10818;50.830;6.524;2023-07-29T05:35:53;19.50;99.90
21318;DHT22;10818;50.830;6.524;2023-07-29T05:40:53;19.60;99.90
21318;DHT22;10818;50.830;6.524;2023-07-29T05:45:54;19.70;99.90
21318;DHT22;10818;50.830;6.524;2023-07-29T05:50:54;19.80;99.90
21318;DHT22;10818;50.830;6.524;2023-07-29T05:55:55;19.70;99.90
21318;DHT22;10818;50.830;6.524;2023-07-29T06:00:55;19.90;99.90
21318;DHT22;10818;50.830;6.524;2023-07-29T06:05:55;20.00;99.90
21318;DHT22;10818;50.830;6.524;2023-07-29T06:10:56;20.10;99.90
21318;DHT22;10818;50.830;6.524;2023-07-29T06:15:56;20.40;99.90
21318;DHT22;10818;50.830;6.524;2023-07-29T06:20:57;20.60;99.90
21318;DHT22;10818;50.830;6.524;2023-07-29T06:25:57;20.60;99.90
21318;DHT22;10818;50.830;6.524;2023-07-29T06:30:59;20.80;99.90
21318;DHT22;10818;50.830;6.524;2023-07-29T06:35:59;21.00;99.90
21318;DHT22;10818;50.830;6.524;2023-07-29T06:41:00;21.40;99.90
21318;DHT22;10818;50.830;6.524;2023-07-29T06:46:00;21.80;99.90
21318;DHT22;10818;50.830;6.524;2023-07-29T06:51:01;22.20;99.90
21318;DHT22;10818;50.830;6.524;2023-07-29T06:56:02;22.40;99.90
21318;DHT22;10818;50.830;6.524;2023-07-29T07:01:03;22.20;99.90
21318;DHT22;10818;50.830;6.524;2023-07-29T07:06:03;22.60;99.90
21318;DHT22;10818;50.830;6.524;2023-07-29T07:11:05;23.30;99.90
21318;DHT22;10818;50.830;6.524;2023-07-29T07:16:06;24.30;99.90
21318;DHT22;10818;50.830;6.524;2023-07-29T07:21:06;24.40;99.90
21318;DHT22;10818;50.830;6.524;2023-07-29T07:26:07;23.60;99.90
21318;DHT22;10818;50.830;6.524;2023-07-29T07:31:07;23.40;99.90
21318;DHT22;10818;50.830;6.524;2023-07-29T07:36:07;23.90;99.90
21318;DHT22;10818;50.830;6.524;2023-07-29T07:41:08;25.20;99.90
21318;DHT22;10818;50.830;6.524;2023-07-29T07:46:08;26.70;99.90
21318;DHT22;10818;50.830;6.524;2023-07-29T07:51:09;28.20;99.90
21318;DHT22;10818;50.830;6.524;2023-07-29T07:56:10;32.40;99.90
21318;DHT22;10818;50.830;6.524;2023-07-29T08:01:10;33.20;99.90
21318;DHT22;10818;50.830;6.524;2023-07-29T08:06:11;31.50;99.90
21318;DHT22;10818;50.830;6.524;2023-07-29T08:11:12;29.40;99.90
21318;DHT22;10818;50.830;6.524;2023-07-29T08:16:12;27.70;99.90
21318;DHT22;10818;50.830;6.524;2023-07-29T08:21:13;26.20;99.90
21318;DHT22;10818;50.830;6.524;2023-07-29T08:26:13;25.30;99.90
21318;DHT22;10818;50.830;6.524;2023-07-29T08:31:13;24.40;99.90
21318;DHT22;10818;50.830;6.524;2023-07-29T08:36:14;24.10;99.90
21318;DHT22;10818;50.830;6.524;2023-07-29T08:41:29;24.00;99.90
21318;DHT22;10818;50.830;6.524;2023-07-29T08:46:30;23.80;99.90
21318;DHT22;10818;50.830;6.524;2023-07-29T08:51:31;23.30;99.90
21318;DHT22;10818;50.830;6.524;2023-07-29T08:56:31;23.30;99.90
21318;DHT22;10818;50.830;6.524;2023-07-29T09:01:32;23.20;99.90
21318;DHT22;10818;50.830;6.524;2023-07-29T09:06:32;23.30;99.90
21318;DHT22;10818;50.830;6.524;2023-07-29T09:11:33;23.30;99.90
21318;DHT22;10818;50.830;6.524;2023-07-29T09:16:34;23.60;99.90
21318;DHT22;10818;50.830;6.524;2023-07-29T09:21:34;24.60;99.90
21318;DHT22;10818;50.830;6.524;2023-07-29T09:26:38;24.50;99.90
21318;DHT22;10818;50.830;6.524;2023-07-29T09:31:40;24.10;99.90
21318;DHT22;10818;50.830;6.524;2023-07-29T09:36:41;24.90;99.90
21318;DHT22;10818;50.830;6.524;2023-07-29T09:41:41;26.00;99.90
21318;DHT22;10818;50.830;6.524;2023-07-29T09:46:47;25.70;99.90
21318;DHT22;10818;50.830;6.524;2023-07-29T09:51:47;25.10;99.90
21318;DHT22;10818;50.830;6.524;2023-07-29T09:56:48;24.90;99.90
21318;DHT22;10818;50.830;6.524;2023-07-29T10:01:48;24.40;99.90
21318;DHT22;10818;50.830;6.524;2023-07-29T10:06:49;24.20;99.90
21318;DHT22;10818;50.830;6.524;2023-07-29T10:11:49;24.00;99.90
21318;DHT22;10818;50.830;6.524;2023-07-29T10:16:51;24.00;99.90
21318;DHT22;10818;50.830;6.524;2023-07-29T10:21:51;23.80;99.90
21318;DHT22;10818;50.830;6.524;2023-07-29T10:26:52;23.20;99.90
21318;DHT22;10818;50.830;6.524;2023-07-29T10:31:53;23.10;99.90
21318;DHT22;10818;50.830;6.524;2023-07-29T10:36:54;23.10;99.90
21318;DHT22;10818;50.830;6.524;2023-07-29T10:42:02;23.50;99.90
21318;DHT22;10818;50.830;6.524;2023-07-29T10:47:10;23.10;99.90
21318;DHT22;10818;50.830;6.524;2023-07-29T10:52:14;23.80;99.90
21318;DHT22;10818;50.830;6.524;2023-07-29T10:57:17;23.90;99.90
21318;DHT22;10818;50.830;6.524;2023-07-29T11:02:31;23.50;99.90
21318;DHT22;10818;50.830;6.524;2023-07-29T11:07:31;24.50;99.90
21318;DHT22;10818;50.830;6.524;2023-07-29T11:12:44;25.70;99.90
21318;DHT22;10818;50.830;6.524;2023-07-29T11:17:52;25.90;99.90
21318;DHT22;10818;50.830;6.524;2023-07-29T11:22:54;26.40;99.90
21318;DHT22;10818;50.830;6.524;2023-07-29T11:27:55;25.80;99.90
21318;DHT22;10818;50.830;6.524;2023-07-29T11:32:56;26.20;99.90
21318;DHT22;10818;50.830;6.524;2023-07-29T11:37:57;26.50;99.90
21318;DHT22;10818;50.830;6.524;2023-07-29T11:42:58;26.70;99.90
21318;DHT22;10818;50.830;6.524;2023-07-29T11:47:58;26.70;99.90
21318;DHT22;10818;50.830;6.524;2023-07-29T11:53:01;27.10;99.90
21318;DHT22;10818;50.830;6.524;2023-07-29T11:58:01;27.10;99.90
21318;DHT22;10818;50.830;6.524;2023-07-29T12:03:02;27.30;99.90
21318;DHT22;10818;50.830;6.524;2023-07-29T12:08:03;27.60;99.90
21318;DHT22;10818;50.830;6.524;2023-07-29T12:13:03;27.80;99.90
21318;DHT22;10818;50.830;6.524;2023-07-29T12:18:04;27.60;99.90
21318;DHT22;10818;50.830;6.524;2023-07-29T12:23:04;27.40;99.90
21318;DHT22;10818;50.830;6.524;2023-07-29T12:28:06;27.60;99.90
21318;DHT22;10818;50.830;6.524;2023-07-29T12:33:07;26.90;99.90
21318;DHT22;10818;50.830;6.524;2023-07-29T12:38:07;26.70;99.90
21318;DHT22;10818;50.830;6.524;2023-07-29T12:43:08;26.90;99.90
21318;DHT22;10818;50.830;6.524;2023-07-29T12:48:08;26.90;99.90
21318;DHT22;10818;50.830;6.524;2023-07-29T12:53:09;26.70;99.90
21318;DHT22;10818;50.830;6.524;2023-07-29T12:58:12;26.20;99.90
21318;DHT22;10818;50.830;6.524;2023-07-29T13:03:13;25.60;99.90
21318;DHT22;10818;50.830;6.524;2023-07-29T13:08:13;25.10;99.90
21318;DHT22;10818;50.830;6.524;2023-07-29T13:13:14;24.80;99.90
21318;DHT22;10818;50.830;6.524;2023-07-29T13:18:14;24.40;99.90
21318;DHT22;10818;50.830;6.524;2023-07-29T13:23:15;24.00;99.90
21318;DHT22;10818;50.830;6.524;2023-07-29T13:28:16;23.60;99.90
21318;DHT22;10818;50.830;6.524;2023-07-29T13:33:16;23.30;99.90
21318;DHT22;10818;50.830;6.524;2023-07-29T13:38:17;22.60;99.90
21318;DHT22;10818;50.830;6.524;2023-07-29T13:43:17;22.40;99.90
21318;DHT22;10818;50.830;6.524;2023-07-29T13:48:18;22.20;99.90
21318;DHT22;10818;50.830;6.524;2023-07-29T13:53:20;22.30;99.90
21318;DHT22;10818;50.830;6.524;2023-07-29T13:58:20;22.10;99.90
21318;DHT22;10818;50.830;6.524;2023-07-29T14:03:21;22.20;99.90
21318;DHT22;10818;50.830;6.524;2023-07-29T14:08:21;22.60;99.90
21318;DHT22;10818;50.830;6.524;2023-07-29T14:13:23;22.90;99.90
21318;DHT22;10818;50.830;6.524;2023-07-29T14:18:23;23.10;99.90
21318;DHT22;10818;50.830;6.524;2023-07-29T14:23:27;23.10;99.90
21318;DHT22;10818;50.830;6.524;2023-07-29T14:28:28;23.20;99.90
21318;DHT22;10818;50.830;6.524;2023-07-29T14:33:32;23.10;99.90
21318;DHT22;10818;50.830;6.524;2023-07-29T14:38:32;22.90;99.90
21318;DHT22;10818;50.830;6.524;2023-07-29T14:43:33;22.90;99.90
21318;DHT22;10818;50.830;6.524;2023-07-29T14:48:33;23.40;99.90
21318;DHT22;10818;50.830;6.524;2023-07-29T14:53:34;24.10;99.90
21318;DHT22;10818;50.830;6.524;2023-07-29T14:58:35;24.60;99.90
21318;DHT22;10818;50.830;6.524;2023-07-29T15:03:38;24.90;99.90
21318;DHT22;10818;50.830;6.524;2023-07-29T15:08:39;24.90;99.90
21318;DHT22;10818;50.830;6.524;2023-07-29T15:13:40;24.70;99.90
21318;DHT22;10818;50.830;6.524;2023-07-29T15:18:40;24.50;99.90
21318;DHT22;10818;50.830;6.524;2023-07-29T15:23:41;24.50;99.90
21318;DHT22;10818;50.830;6.524;2023-07-29T15:28:42;24.20;99.90
21318;DHT22;10818;50.830;6.524;2023-07-29T15:33:42;24.30;99.90
21318;DHT22;10818;50.830;6.524;2023-07-29T15:38:43;24.30;99.90
21318;DHT22;10818;50.830;6.524;2023-07-29T15:43:49;24.30;99.90
21318;DHT22;10818;50.830;6.524;2023-07-29T15:48:50;24.10;99.90
21318;DHT22;10818;50.830;6.524;2023-07-29T15:53:50;24.10;99.90
21318;DHT22;10818;50.830;6.524;2023-07-29T15:58:54;24.40;99.90
21318;DHT22;10818;50.830;6.524;2023-07-29T16:03:55;24.50;99.90
21318;DHT22;10818;50.830;6.524;2023-07-29T16:08:55;25.00;99.90
21318;DHT22;10818;50.830;6.524;2023-07-29T16:13:56;25.10;99.90
21318;DHT22;10818;50.830;6.524;2023-07-29T16:19:03;24.90;99.90
21318;DHT22;10818;50.830;6.524;2023-07-29T16:24:12;24.90;99.90
21318;DHT22;10818;50.830;6.524;2023-07-29T16:29:19;24.80;99.90
21318;DHT22;10818;50.830;6.524;2023-07-29T16:34:20;24.70;99.90
21318;DHT22;10818;50.830;6.524;2023-07-29T16:39:26;24.20;99.90
21318;DHT22;10818;50.830;6.524;2023-07-29T16:44:29;24.20;99.90
21318;DHT22;10818;50.830;6.524;2023-07-29T16:49:29;24.00;99.90
21318;DHT22;10818;50.830;6.524;2023-07-29T16:54:30;24.10;99.90
21318;DHT22;10818;50.830;6.524;2023-07-29T16:59:30;24.00;99.90
21318;DHT22;10818;50.830;6.524;2023-07-29T17:04:31;24.00;99.90
21318;DHT22;10818;50.830;6.524;2023-07-29T17:09:31;23.90;99.90
21318;DHT22;10818;50.830;6.524;2023-07-29T17:14:32;23.70;99.90
21318;DHT22;10818;50.830;6.524;2023-07-29T17:19:32;23.40;99.90
21318;DHT22;10818;50.830;6.524;2023-07-29T17:24:33;23.30;99.90
21318;DHT22;10818;50.830;6.524;2023-07-29T17:29:33;23.10;99.90
21318;DHT22;10818;50.830;6.524;2023-07-29T17:34:34;23.10;99.90
21318;DHT22;10818;50.830;6.524;2023-07-29T17:39:34;23.20;99.90
21318;DHT22;10818;50.830;6.524;2023-07-29T17:44:36;23.30;99.90
21318;DHT22;10818;50.830;6.524;2023-07-29T17:49:36;23.30;99.90
21318;DHT22;10818;50.830;6.524;2023-07-29T17:54:37;23.30;99.90
21318;DHT22;10818;50.830;6.524;2023-07-29T17:59:39;23.20;99.90
21318;DHT22;10818;50.830;6.524;2023-07-29T18:04:40;23.00;99.90
21318;DHT22;10818;50.830;6.524;2023-07-29T18:09:42;23.00;99.90
21318;DHT22;10818;50.830;6.524;2023-07-29T18:14:42;23.00;99.90
21318;DHT22;10818;50.830;6.524;2023-07-29T18:19:42;23.00;99.90
21318;DHT22;10818;50.830;6.524;2023-07-29T18:24:44;23.10;99.90
21318;DHT22;10818;50.830;6.524;2023-07-29T18:29:45;22.90;99.90
21318;DHT22;10818;50.830;6.524;2023-07-29T18:34:45;22.60;99.90
21318;DHT22;10818;50.830;6.524;2023-07-29T18:39:46;22.40;99.90
21318;DHT22;10818;50.830;6.524;2023-07-29T18:44:46;22.20;99.90
21318;DHT22;10818;50.830;6.524;2023-07-29T18:49:47;22.10;99.90
21318;DHT22;10818;50.830;6.524;2023-07-29T18:54:47;22.10;99.90
21318;DHT22;10818;50.830;6.524;2023-07-29T18:59:47;22.00;99.90
21318;DHT22;10818;50.830;6.524;2023-07-29T19:04:48;21.90;99.90
21318;DHT22;10818;50.830;6.524;2023-07-29T19:09:48;21.70;99.90
21318;DHT22;10818;50.830;6.524;2023-07-29T19:14:49;21.60;99.90
21318;DHT22;10818;50.830;6.524;2023-07-29T19:19:49;21.40;99.90
21318;DHT22;10818;50.830;6.524;2023-07-29T19:24:50;21.20;99.90
21318;DHT22;10818;50.830;6.524;2023-07-29T19:29:50;21.10;99.90
21318;DHT22;10818;50.830;6.524;2023-07-29T19:34:54;21.00;99.90
21318;DHT22;10818;50.830;6.524;2023-07-29T19:39:56;21.00;99.90
21318;DHT22;10818;50.830;6.524;2023-07-29T19:44:56;21.00;99.90
21318;DHT22;10818;50.830;6.524;2023-07-29T19:49:57;20.90;99.90
21318;DHT22;10818;50.830;6.524;2023-07-29T19:54:57;20.80;99.90
21318;DHT22;10818;50.830;6.524;2023-07-29T19:59:57;20.60;99.90
21318;DHT22;10818;50.830;6.524;2023-07-29T20:04:58;20.60;99.90
21318;DHT22;10818;50.830;6.524;2023-07-29T20:09:58;20.40;99.90
21318;DHT22;10818;50.830;6.524;2023-07-29T20:14:59;20.20;99.90
21318;DHT22;10818;50.830;6.524;2023-07-29T20:20:03;20.20;99.90
21318;DHT22;10818;50.830;6.524;2023-07-29T20:25:04;20.10;99.90
21318;DHT22;10818;50.830;6.524;2023-07-29T20:30:04;20.00;99.90
21318;DHT22;10818;50.830;6.524;2023-07-29T20:35:05;19.90;99.90
21318;DHT22;10818;50.830;6.524;2023-07-29T20:40:06;19.90;99.90
21318;DHT22;10818;50.830;6.524;2023-07-29T20:45:07;19.80;99.90
21318;DHT22;10818;50.830;6.524;2023-07-29T20:50:07;19.70;99.90
21318;DHT22;10818;50.830;6.524;2023-07-29T20:55:08;19.70;99.90
21318;DHT22;10818;50.830;6.524;2023-07-29T21:00:09;19.70;99.90
21318;DHT22;10818;50.830;6.524;2023-07-29T21:05:10;19.60;99.90
21318;DHT22;10818;50.830;6.524;2023-07-29T21:10:11;19.50;99.90
21318;DHT22;10818;50.830;6.524;2023-07-29T21:15:11;19.40;99.90
21318;DHT22;10818;50.830;6.524;2023-07-29T21:20:12;19.40;99.90
21318;DHT22;10818;50.830;6.524;2023-07-29T21:25:12;19.30;99.90
21318;DHT22;10818;50.830;6.524;2023-07-29T21:30:13;19.30;99.90
21318;DHT22;10818;50.830;6.524;2023-07-29T21:35:13;19.20;99.90
21318;DHT22;10818;50.830;6.524;2023-07-29T21:40:14;19.00;99.90
21318;DHT22;10818;50.830;6.524;2023-07-29T21:45:14;19.00;99.90
21318;DHT22;10818;50.830;6.524;2023-07-29T21:50:15;18.90;99.90
21318;DHT22;10818;50.830;6.524;2023-07-29T21:55:15;18.80;99.90
21318;DHT22;10818;50.830;6.524;2023-07-29T22:00:16;18.60;99.90
21318;DHT22;10818;50.830;6.524;2023-07-29T22:05:17;18.70;99.90
21318;DHT22;10818;50.830;6.524;2023-07-29T22:10:17;18.70;99.90
21318;DHT22;10818;50.830;6.524;2023-07-29T22:15:18;18.70;99.90
21318;DHT22;10818;50.830;6.524;2023-07-29T22:20:18;18.70;99.90
21318;DHT22;10818;50.830;6.524;2023-07-29T22:25:19;18.60;99.90
21318;DHT22;10818;50.830;6.524;2023-07-29T22:30:19;18.60;99.90
21318;DHT22;10818;50.830;6.524;2023-07-29T22:35:19;18.50;99.90
21318;DHT22;10818;50.830;6.524;2023-07-29T22:40:20;18.50;99.90
21318;DHT22;10818;50.830;6.524;2023-07-29T22:45:20;18.50;99.90
21318;DHT22;10818;50.830;6.524;2023-07-29T22:50:21;18.40;99.90
21318;DHT22;10818;50.830;6.524;2023-07-29T22:55:21;18.40;99.90
21318;DHT22;10818;50.830;6.524;2023-07-29T23:00:23;18.40;99.90
21318;DHT22;10818;50.830;6.524;2023-07-29T23:05:24;18.30;99.90
21318;DHT22;10818;50.830;6.524;2023-07-29T23:10:24;18.10;99.90
21318;DHT22;10818;50.830;6.524;2023-07-29T23:15:25;18.10;99.90
21318;DHT22;10818;50.830;6.524;2023-07-29T23:20:25;18.10;99.90
21318;DHT22;10818;50.830;6.524;2023-07-29T23:25:26;17.90;99.90
21318;DHT22;10818;50.830;6.524;2023-07-29T23:30:26;17.90;99.90
21318;DHT22;10818;50.830;6.524;2023-07-29T23:35:27;17.90;99.90
21318;DHT22;10818;50.830;6.524;2023-07-29T23:40:27;17.80;99.90
21318;DHT22;10818;50.830;6.524;2023-07-29T23:45:28;17.70;99.90
21318;DHT22;10818;50.830;6.524;2023-07-29T23:50:28;17.60;99.90
21318;DHT22;10818;50.830;6.524;2023-07-29T23:55:29;17.60;99.90
